sensor_id;sensor_type;location;lat;lon;timestamp;temperature;humidity
9987;DHT22;5033;46.310;11.214;2022-10-24T00:00:40;13.50;99.90
9987;DHT22;5033;46.310;11.214;2022-10-24T00:03:07;13.50;99.90
9987;DHT22;5033;46.310;11.214;2022-10-24T00:05:35;13.50;99.90
9987;DHT22;5033;46.310;11.214;2022-10-24T00:08:04;13.40;99.90
9987;DHT22;5033;46.310;11.214;2022-10-24T00:10:31;13.40;99.90
9987;DHT22;5033;46.310;11.214;2022-10-24T00:13:04;13.40;99.90
9987;DHT22;5033;46.310;11.214;2022-10-24T00:15:32;13.40;99.90
9987;DHT22;5033;46.310;11.214;2022-10-24T00:18:00;13.40;99.90
9987;DHT22;5033;46.310;11.214;2022-10-24T00:20:27;13.30;99.90
9987;DHT22;5033;46.310;11.214;2022-10-24T00:22:54;13.30;99.90
9987;DHT22;5033;46.310;11.214;2022-10-24T00:25:22;13.30;99.90
9987;DHT22;5033;46.310;11.214;2022-10-24T00:27:49;13.30;99.90
9987;DHT22;5033;46.310;11.214;2022-10-24T00:30:18;13.30;99.90
9987;DHT22;5033;46.310;11.214;2022-10-24T00:32:46;13.30;99.90
9987;DHT22;5033;46.310;11.214;2022-10-24T00:35:13;13.30;99.90
9987;DHT22;5033;46.310;11.214;2022-10-24T00:37:42;13.30;99.90
9987;DHT22;5033;46.310;11.214;2022-10-24T00:40:13;13.20;99.90
9987;DHT22;5033;46.310;11.214;2022-10-24T00:42:42;13.20;99.90
9987;DHT22;5033;46.310;11.214;2022-10-24T00:45:43;13.20;99.90
9987;DHT22;5033;46.310;11.214;2022-10-24T00:48:18;13.20;99.90
9987;DHT22;5033;46.310;11.214;2022-10-24T00:50:50;13.20;99.90
9987;DHT22;5033;46.310;11.214;2022-10-24T00:53:20;13.20;99.90
9987;DHT22;5033;46.310;11.214;2022-10-24T00:55:51;13.20;99.90
9987;DHT22;5033;46.310;11.214;2022-10-24T00:58:21;13.10;99.90
9987;DHT22;5033;46.310;11.214;2022-10-24T01:00:51;13.10;99.90
9987;DHT22;5033;46.310;11.214;2022-10-24T01:03:19;13.10;99.90
9987;DHT22;5033;46.310;11.214;2022-10-24T01:06:13;13.00;99.90
9987;DHT22;5033;46.310;11.214;2022-10-24T01:08:45;13.00;99.90
9987;DHT22;5033;46.310;11.214;2022-10-24T01:11:24;13.00;99.90
9987;DHT22;5033;46.310;11.214;2022-10-24T01:13:59;13.00;99.90
9987;DHT22;5033;46.310;11.214;2022-10-24T01:16:37;13.00;99.90
9987;DHT22;5033;46.310;11.214;2022-10-24T01:19:19;13.00;99.90
9987;DHT22;5033;46.310;11.214;2022-10-24T01:21:56;13.00;99.90
9987;DHT22;5033;46.310;11.214;2022-10-24T01:24:36;13.00;99.90
9987;DHT22;5033;46.310;11.214;2022-10-24T01:27:28;13.00;99.90
9987;DHT22;5033;46.310;11.214;2022-10-24T01:30:05;13.00;99.90
9987;DHT22;5033;46.310;11.214;2022-10-24T01:32:47;13.00;99.90
9987;DHT22;5033;46.310;11.214;2022-10-24T01:35:33;13.00;99.90
9987;DHT22;5033;46.310;11.214;2022-10-24T01:38:11;13.00;99.90
9987;DHT22;5033;46.310;11.214;2022-10-24T01:40:46;13.00;99.90
9987;DHT22;5033;46.310;11.214;2022-10-24T01:43:20;13.00;99.90
9987;DHT22;5033;46.310;11.214;2022-10-24T01:45:54;13.00;99.90
9987;DHT22;5033;46.310;11.214;2022-10-24T01:48:24;13.00;99.90
9987;DHT22;5033;46.310;11.214;2022-10-24T01:50:53;13.00;99.90
9987;DHT22;5033;46.310;11.214;2022-10-24T01:53:23;13.00;99.90
9987;DHT22;5033;46.310;11.214;2022-10-24T01:55:54;13.00;99.90
9987;DHT22;5033;46.310;11.214;2022-10-24T01:58:22;13.10;99.90
9987;DHT22;5033;46.310;11.214;2022-10-24T02:00:56;13.10;99.90
9987;DHT22;5033;46.310;11.214;2022-10-24T02:03:28;13.10;99.90
9987;DHT22;5033;46.310;11.214;2022-10-24T02:06:00;13.10;99.90
9987;DHT22;5033;46.310;11.214;2022-10-24T02:08:33;13.10;99.90
9987;DHT22;5033;46.310;11.214;2022-10-24T02:11:03;13.10;99.90
9987;DHT22;5033;46.310;11.214;2022-10-24T02:13:35;13.10;99.90
9987;DHT22;5033;46.310;11.214;2022-10-24T02:16:08;13.10;99.90
9987;DHT22;5033;46.310;11.214;2022-10-24T02:18:36;13.10;99.90
9987;DHT22;5033;46.310;11.214;2022-10-24T02:21:10;13.10;99.90
9987;DHT22;5033;46.310;11.214;2022-10-24T02:23:46;13.20;99.90
9987;DHT22;5033;46.310;11.214;2022-10-24T02:26:26;13.20;99.90
9987;DHT22;5033;46.310;11.214;2022-10-24T02:28:58;13.20;99.90
9987;DHT22;5033;46.310;11.214;2022-10-24T02:31:32;13.20;99.90
9987;DHT22;5033;46.310;11.214;2022-10-24T02:34:00;13.20;99.90
9987;DHT22;5033;46.310;11.214;2022-10-24T02:36:30;13.30;99.90
9987;DHT22;5033;46.310;11.214;2022-10-24T02:38:59;13.20;99.90
9987;DHT22;5033;46.310;11.214;2022-10-24T02:41:30;13.20;99.90
9987;DHT22;5033;46.310;11.214;2022-10-24T02:44:00;13.20;99.90
9987;DHT22;5033;46.310;11.214;2022-10-24T02:46:30;13.20;99.90
9987;DHT22;5033;46.310;11.214;2022-10-24T02:49:00;13.10;99.90
9987;DHT22;5033;46.310;11.214;2022-10-24T02:51:31;13.10;99.90
9987;DHT22;5033;46.310;11.214;2022-10-24T02:54:02;13.10;99.90
9987;DHT22;5033;46.310;11.214;2022-10-24T02:56:30;13.10;99.90
9987;DHT22;5033;46.310;11.214;2022-10-24T02:58:57;13.10;99.90
9987;DHT22;5033;46.310;11.214;2022-10-24T03:01:25;13.00;99.90
9987;DHT22;5033;46.310;11.214;2022-10-24T03:03:54;13.00;99.90
9987;DHT22;5033;46.310;11.214;2022-10-24T03:06:21;12.90;99.90
9987;DHT22;5033;46.310;11.214;2022-10-24T03:08:49;12.90;99.90
9987;DHT22;5033;46.310;11.214;2022-10-24T03:11:17;12.90;99.90
9987;DHT22;5033;46.310;11.214;2022-10-24T03:13:45;12.90;99.90
9987;DHT22;5033;46.310;11.214;2022-10-24T03:16:12;12.80;99.90
9987;DHT22;5033;46.310;11.214;2022-10-24T03:18:40;12.80;99.90
9987;DHT22;5033;46.310;11.214;2022-10-24T03:21:12;12.80;99.90
9987;DHT22;5033;46.310;11.214;2022-10-24T03:23:40;12.90;99.90
9987;DHT22;5033;46.310;11.214;2022-10-24T03:26:07;12.90;99.90
9987;DHT22;5033;46.310;11.214;2022-10-24T03:28:35;12.90;99.90
9987;DHT22;5033;46.310;11.214;2022-10-24T03:31:02;12.90;99.90
9987;DHT22;5033;46.310;11.214;2022-10-24T03:33:30;12.90;99.90
9987;DHT22;5033;46.310;11.214;2022-10-24T03:35:58;12.90;99.90
9987;DHT22;5033;46.310;11.214;2022-10-24T03:38:27;13.00;99.90
9987;DHT22;5033;46.310;11.214;2022-10-24T03:40:55;13.00;99.90
9987;DHT22;5033;46.310;11.214;2022-10-24T03:43:23;13.00;99.90
9987;DHT22;5033;46.310;11.214;2022-10-24T03:45:50;13.00;99.90
9987;DHT22;5033;46.310;11.214;2022-10-24T03:48:18;13.00;99.90
9987;DHT22;5033;46.310;11.214;2022-10-24T03:50:45;13.00;99.90
9987;DHT22;5033;46.310;11.214;2022-10-24T03:53:13;13.00;99.90
9987;DHT22;5033;46.310;11.214;2022-10-24T03:55:42;13.00;99.90
9987;DHT22;5033;46.310;11.214;2022-10-24T03:58:10;13.00;99.90
9987;DHT22;5033;46.310;11.214;2022-10-24T04:00:37;13.00;99.90
9987;DHT22;5033;46.310;11.214;2022-10-24T04:03:06;13.10;99.90
9987;DHT22;5033;46.310;11.214;2022-10-24T04:05:34;13.00;99.90
9987;DHT22;5033;46.310;11.214;2022-10-24T04:08:03;13.10;99.90
9987;DHT22;5033;46.310;11.214;2022-10-24T04:10:30;13.10;99.90
9987;DHT22;5033;46.310;11.214;2022-10-24T04:12:59;13.10;99.90
9987;DHT22;5033;46.310;11.214;2022-10-24T04:15:27;13.10;99.90
9987;DHT22;5033;46.310;11.214;2022-10-24T04:17:54;13.10;99.90
9987;DHT22;5033;46.310;11.214;2022-10-24T04:20:22;13.00;99.90
9987;DHT22;5033;46.310;11.214;2022-10-24T04:23:00;13.00;99.90
9987;DHT22;5033;46.310;11.214;2022-10-24T04:25:27;13.00;99.90
9987;DHT22;5033;46.310;11.214;2022-10-24T04:27:55;13.00;99.90
9987;DHT22;5033;46.310;11.214;2022-10-24T04:30:27;13.10;99.90
9987;DHT22;5033;46.310;11.214;2022-10-24T04:32:55;13.00;99.90
9987;DHT22;5033;46.310;11.214;2022-10-24T04:35:23;13.10;99.90
9987;DHT22;5033;46.310;11.214;2022-10-24T04:37:51;13.10;99.90
9987;DHT22;5033;46.310;11.214;2022-10-24T04:40:19;13.10;99.90
9987;DHT22;5033;46.310;11.214;2022-10-24T04:42:46;13.10;99.90
9987;DHT22;5033;46.310;11.214;2022-10-24T04:45:14;13.10;99.90
9987;DHT22;5033;46.310;11.214;2022-10-24T04:47:48;13.10;99.90
9987;DHT22;5033;46.310;11.214;2022-10-24T04:50:15;13.10;99.90
9987;DHT22;5033;46.310;11.214;2022-10-24T04:52:42;13.10;99.90
9987;DHT22;5033;46.310;11.214;2022-10-24T04:55:10;13.10;99.90
9987;DHT22;5033;46.310;11.214;2022-10-24T04:57:38;13.10;99.90
9987;DHT22;5033;46.310;11.214;2022-10-24T05:00:08;13.00;99.90
9987;DHT22;5033;46.310;11.214;2022-10-24T05:02:42;13.00;99.90
9987;DHT22;5033;46.310;11.214;2022-10-24T05:05:11;13.00;99.90
9987;DHT22;5033;46.310;11.214;2022-10-24T05:07:40;12.90;99.90
9987;DHT22;5033;46.310;11.214;2022-10-24T05:10:08;12.90;99.90
9987;DHT22;5033;46.310;11.214;2022-10-24T05:12:37;12.90;99.90
9987;DHT22;5033;46.310;11.214;2022-10-24T05:15:06;12.90;99.90
9987;DHT22;5033;46.310;11.214;2022-10-24T05:17:33;12.80;99.90
9987;DHT22;5033;46.310;11.214;2022-10-24T05:20:01;12.80;99.90
9987;DHT22;5033;46.310;11.214;2022-10-24T05:22:30;12.80;99.90
9987;DHT22;5033;46.310;11.214;2022-10-24T05:24:58;12.90;99.90
9987;DHT22;5033;46.310;11.214;2022-10-24T05:27:25;12.80;99.90
9987;DHT22;5033;46.310;11.214;2022-10-24T05:29:54;12.80;99.90
9987;DHT22;5033;46.310;11.214;2022-10-24T05:32:22;12.80;99.90
9987;DHT22;5033;46.310;11.214;2022-10-24T05:34:52;12.80;99.90
9987;DHT22;5033;46.310;11.214;2022-10-24T05:37:19;12.80;99.90
9987;DHT22;5033;46.310;11.214;2022-10-24T05:39:48;12.80;99.90
9987;DHT22;5033;46.310;11.214;2022-10-24T05:42:16;12.80;99.90
9987;DHT22;5033;46.310;11.214;2022-10-24T05:44:43;12.90;99.90
9987;DHT22;5033;46.310;11.214;2022-10-24T05:47:11;12.80;99.90
9987;DHT22;5033;46.310;11.214;2022-10-24T05:49:38;12.90;99.90
9987;DHT22;5033;46.310;11.214;2022-10-24T05:52:05;12.90;99.90
9987;DHT22;5033;46.310;11.214;2022-10-24T05:54:33;12.90;99.90
9987;DHT22;5033;46.310;11.214;2022-10-24T05:57:02;12.90;99.90
9987;DHT22;5033;46.310;11.214;2022-10-24T05:59:29;12.90;99.90
9987;DHT22;5033;46.310;11.214;2022-10-24T06:01:57;12.90;99.90
9987;DHT22;5033;46.310;11.214;2022-10-24T06:04:25;12.90;99.90
9987;DHT22;5033;46.310;11.214;2022-10-24T06:06:53;13.00;99.90
9987;DHT22;5033;46.310;11.214;2022-10-24T06:09:21;13.00;99.90
9987;DHT22;5033;46.310;11.214;2022-10-24T06:11:50;13.00;99.90
9987;DHT22;5033;46.310;11.214;2022-10-24T06:14:19;13.10;99.90
9987;DHT22;5033;46.310;11.214;2022-10-24T06:16:46;13.10;99.90
9987;DHT22;5033;46.310;11.214;2022-10-24T06:19:14;13.10;99.90
9987;DHT22;5033;46.310;11.214;2022-10-24T06:21:41;13.20;99.90
9987;DHT22;5033;46.310;11.214;2022-10-24T06:24:08;13.20;99.90
9987;DHT22;5033;46.310;11.214;2022-10-24T06:26:36;13.20;99.90
9987;DHT22;5033;46.310;11.214;2022-10-24T06:29:03;13.20;99.90
9987;DHT22;5033;46.310;11.214;2022-10-24T06:31:33;13.20;99.90
9987;DHT22;5033;46.310;11.214;2022-10-24T06:34:01;13.30;99.90
9987;DHT22;5033;46.310;11.214;2022-10-24T06:36:31;13.30;99.90
9987;DHT22;5033;46.310;11.214;2022-10-24T06:39:00;13.40;99.90
9987;DHT22;5033;46.310;11.214;2022-10-24T06:41:28;13.50;99.90
9987;DHT22;5033;46.310;11.214;2022-10-24T06:44:03;13.50;99.90
9987;DHT22;5033;46.310;11.214;2022-10-24T06:46:32;13.60;99.90
9987;DHT22;5033;46.310;11.214;2022-10-24T06:49:00;13.60;99.90
9987;DHT22;5033;46.310;11.214;2022-10-24T06:51:28;13.70;99.90
9987;DHT22;5033;46.310;11.214;2022-10-24T06:53:56;13.60;99.90
9987;DHT22;5033;46.310;11.214;2022-10-24T06:56:25;13.70;99.90
9987;DHT22;5033;46.310;11.214;2022-10-24T06:58:53;13.80;99.90
9987;DHT22;5033;46.310;11.214;2022-10-24T07:01:22;13.90;99.90
9987;DHT22;5033;46.310;11.214;2022-10-24T07:03:57;14.10;99.90
9987;DHT22;5033;46.310;11.214;2022-10-24T07:06:26;14.30;99.90
9987;DHT22;5033;46.310;11.214;2022-10-24T07:08:59;14.60;99.90
9987;DHT22;5033;46.310;11.214;2022-10-24T07:11:27;14.80;99.90
9987;DHT22;5033;46.310;11.214;2022-10-24T07:13:55;14.90;99.90
9987;DHT22;5033;46.310;11.214;2022-10-24T07:16:23;15.10;99.90
9987;DHT22;5033;46.310;11.214;2022-10-24T07:18:52;15.30;99.90
9987;DHT22;5033;46.310;11.214;2022-10-24T07:21:23;15.40;99.90
9987;DHT22;5033;46.310;11.214;2022-10-24T07:23:52;15.60;99.90
9987;DHT22;5033;46.310;11.214;2022-10-24T07:26:21;15.70;99.90
9987;DHT22;5033;46.310;11.214;2022-10-24T07:28:51;15.70;99.90
9987;DHT22;5033;46.310;11.214;2022-10-24T07:31:22;15.60;99.90
9987;DHT22;5033;46.310;11.214;2022-10-24T07:33:50;15.30;99.90
9987;DHT22;5033;46.310;11.214;2022-10-24T07:36:19;15.10;99.90
9987;DHT22;5033;46.310;11.214;2022-10-24T07:38:49;14.90;99.90
9987;DHT22;5033;46.310;11.214;2022-10-24T07:41:17;14.90;99.90
9987;DHT22;5033;46.310;11.214;2022-10-24T07:43:45;15.00;99.90
9987;DHT22;5033;46.310;11.214;2022-10-24T07:46:15;15.10;99.90
9987;DHT22;5033;46.310;11.214;2022-10-24T07:48:43;15.20;99.90
9987;DHT22;5033;46.310;11.214;2022-10-24T07:51:12;15.30;99.90
9987;DHT22;5033;46.310;11.214;2022-10-24T07:53:42;15.40;99.90
9987;DHT22;5033;46.310;11.214;2022-10-24T07:56:13;16.00;99.90
9987;DHT22;5033;46.310;11.214;2022-10-24T07:58:45;16.50;99.90
9987;DHT22;5033;46.310;11.214;2022-10-24T08:01:16;16.90;99.90
9987;DHT22;5033;46.310;11.214;2022-10-24T08:03:45;17.30;99.90
9987;DHT22;5033;46.310;11.214;2022-10-24T08:06:16;17.70;99.90
9987;DHT22;5033;46.310;11.214;2022-10-24T08:08:44;17.80;99.90
9987;DHT22;5033;46.310;11.214;2022-10-24T08:11:16;17.30;99.90
9987;DHT22;5033;46.310;11.214;2022-10-24T08:13:46;17.10;99.90
9987;DHT22;5033;46.310;11.214;2022-10-24T08:16:16;17.20;99.90
9987;DHT22;5033;46.310;11.214;2022-10-24T08:18:48;17.40;99.90
9987;DHT22;5033;46.310;11.214;2022-10-24T08:21:17;17.70;99.90
9987;DHT22;5033;46.310;11.214;2022-10-24T08:23:50;18.00;99.90
9987;DHT22;5033;46.310;11.214;2022-10-24T08:26:21;18.50;99.90
9987;DHT22;5033;46.310;11.214;2022-10-24T08:28:50;18.40;99.90
9987;DHT22;5033;46.310;11.214;2022-10-24T08:31:21;18.20;99.90
9987;DHT22;5033;46.310;11.214;2022-10-24T08:33:51;18.40;99.90
9987;DHT22;5033;46.310;11.214;2022-10-24T08:36:22;18.40;99.90
9987;DHT22;5033;46.310;11.214;2022-10-24T08:38:51;18.30;99.90
9987;DHT22;5033;46.310;11.214;2022-10-24T08:41:28;18.20;99.90
9987;DHT22;5033;46.310;11.214;2022-10-24T08:43:58;17.80;99.90
9987;DHT22;5033;46.310;11.214;2022-10-24T08:46:38;17.50;99.90
9987;DHT22;5033;46.310;11.214;2022-10-24T08:49:16;17.40;99.90
9987;DHT22;5033;46.310;11.214;2022-10-24T08:51:49;17.60;99.90
9987;DHT22;5033;46.310;11.214;2022-10-24T08:54:20;17.90;99.90
9987;DHT22;5033;46.310;11.214;2022-10-24T08:56:54;17.80;99.90
9987;DHT22;5033;46.310;11.214;2022-10-24T08:59:28;17.70;99.90
9987;DHT22;5033;46.310;11.214;2022-10-24T09:01:59;17.60;99.90
9987;DHT22;5033;46.310;11.214;2022-10-24T09:04:37;17.50;99.90
9987;DHT22;5033;46.310;11.214;2022-10-24T09:07:14;17.90;99.90
9987;DHT22;5033;46.310;11.214;2022-10-24T09:09:46;18.30;99.90
9987;DHT22;5033;46.310;11.214;2022-10-24T09:12:18;18.80;99.90
9987;DHT22;5033;46.310;11.214;2022-10-24T09:14:52;19.30;99.90
9987;DHT22;5033;46.310;11.214;2022-10-24T09:17:22;19.60;99.90
9987;DHT22;5033;46.310;11.214;2022-10-24T09:19:53;19.70;99.90
9987;DHT22;5033;46.310;11.214;2022-10-24T09:22:24;19.70;99.90
9987;DHT22;5033;46.310;11.214;2022-10-24T09:24:55;19.50;99.90
9987;DHT22;5033;46.310;11.214;2022-10-24T09:27:28;18.90;99.90
9987;DHT22;5033;46.310;11.214;2022-10-24T09:29:57;18.30;99.90
9987;DHT22;5033;46.310;11.214;2022-10-24T09:32:28;18.00;99.90
9987;DHT22;5033;46.310;11.214;2022-10-24T09:34:58;17.80;99.90
9987;DHT22;5033;46.310;11.214;2022-10-24T09:37:41;17.90;99.90
9987;DHT22;5033;46.310;11.214;2022-10-24T09:40:17;17.90;99.90
9987;DHT22;5033;46.310;11.214;2022-10-24T09:42:59;17.90;99.90
9987;DHT22;5033;46.310;11.214;2022-10-24T09:45:44;18.00;99.90
9987;DHT22;5033;46.310;11.214;2022-10-24T09:48:21;18.20;99.90
9987;DHT22;5033;46.310;11.214;2022-10-24T09:50:50;18.20;99.90
9987;DHT22;5033;46.310;11.214;2022-10-24T09:53:29;18.10;99.90
9987;DHT22;5033;46.310;11.214;2022-10-24T09:55:59;18.20;99.90
9987;DHT22;5033;46.310;11.214;2022-10-24T09:58:30;18.40;99.90
9987;DHT22;5033;46.310;11.214;2022-10-24T10:01:04;18.40;99.90
9987;DHT22;5033;46.310;11.214;2022-10-24T10:03:36;18.60;99.90
9987;DHT22;5033;46.310;11.214;2022-10-24T10:06:19;19.10;99.90
9987;DHT22;5033;46.310;11.214;2022-10-24T10:08:49;19.40;99.90
9987;DHT22;5033;46.310;11.214;2022-10-24T10:11:24;19.40;99.90
9987;DHT22;5033;46.310;11.214;2022-10-24T10:13:53;19.10;99.90
9987;DHT22;5033;46.310;11.214;2022-10-24T10:16:23;18.80;99.90
9987;DHT22;5033;46.310;11.214;2022-10-24T10:18:51;18.50;99.90
9987;DHT22;5033;46.310;11.214;2022-10-24T10:21:26;18.40;99.90
9987;DHT22;5033;46.310;11.214;2022-10-24T10:23:54;18.70;99.90
9987;DHT22;5033;46.310;11.214;2022-10-24T10:26:23;19.00;99.90
9987;DHT22;5033;46.310;11.214;2022-10-24T10:29:02;19.30;99.90
9987;DHT22;5033;46.310;11.214;2022-10-24T10:31:37;19.70;99.90
9987;DHT22;5033;46.310;11.214;2022-10-24T10:34:16;19.80;99.90
9987;DHT22;5033;46.310;11.214;2022-10-24T10:39:50;20.10;99.90
9987;DHT22;5033;46.310;11.214;2022-10-24T10:42:28;19.60;99.90
9987;DHT22;5033;46.310;11.214;2022-10-24T10:45:12;19.40;99.90
9987;DHT22;5033;46.310;11.214;2022-10-24T10:47:47;19.30;99.90
9987;DHT22;5033;46.310;11.214;2022-10-24T10:50:25;19.20;99.90
9987;DHT22;5033;46.310;11.214;2022-10-24T10:52:57;19.10;99.90
9987;DHT22;5033;46.310;11.214;2022-10-24T10:55:30;19.10;99.90
9987;DHT22;5033;46.310;11.214;2022-10-24T10:58:10;19.10;99.90
9987;DHT22;5033;46.310;11.214;2022-10-24T11:00:45;19.20;99.90
9987;DHT22;5033;46.310;11.214;2022-10-24T11:03:31;19.30;99.90
9987;DHT22;5033;46.310;11.214;2022-10-24T11:06:17;19.30;99.90
9987;DHT22;5033;46.310;11.214;2022-10-24T11:11:47;19.40;99.90
9987;DHT22;5033;46.310;11.214;2022-10-24T11:14:24;19.60;99.90
9987;DHT22;5033;46.310;11.214;2022-10-24T11:16:56;19.80;99.90
9987;DHT22;5033;46.310;11.214;2022-10-24T11:19:29;20.20;99.90
9987;DHT22;5033;46.310;11.214;2022-10-24T11:21:59;20.40;99.90
9987;DHT22;5033;46.310;11.214;2022-10-24T11:24:38;20.60;99.90
9987;DHT22;5033;46.310;11.214;2022-10-24T11:27:09;20.80;99.90
9987;DHT22;5033;46.310;11.214;2022-10-24T11:29:44;20.90;99.90
9987;DHT22;5033;46.310;11.214;2022-10-24T11:32:19;20.90;99.90
9987;DHT22;5033;46.310;11.214;2022-10-24T11:34:54;20.80;99.90
9987;DHT22;5033;46.310;11.214;2022-10-24T11:37:26;20.90;99.90
9987;DHT22;5033;46.310;11.214;2022-10-24T11:39:56;21.00;99.90
9987;DHT22;5033;46.310;11.214;2022-10-24T11:42:29;20.90;99.90
9987;DHT22;5033;46.310;11.214;2022-10-24T11:45:00;20.90;99.90
9987;DHT22;5033;46.310;11.214;2022-10-24T11:48:00;20.50;99.90
9987;DHT22;5033;46.310;11.214;2022-10-24T11:50:35;20.20;99.90
9987;DHT22;5033;46.310;11.214;2022-10-24T11:53:12;20.20;99.90
9987;DHT22;5033;46.310;11.214;2022-10-24T11:55:44;20.00;99.90
9987;DHT22;5033;46.310;11.214;2022-10-24T11:58:14;19.80;99.90
9987;DHT22;5033;46.310;11.214;2022-10-24T12:01:04;19.60;99.90
9987;DHT22;5033;46.310;11.214;2022-10-24T12:03:57;19.60;99.90
9987;DHT22;5033;46.310;11.214;2022-10-24T12:09:44;19.60;99.90
9987;DHT22;5033;46.310;11.214;2022-10-24T12:12:30;19.70;99.90
9987;DHT22;5033;46.310;11.214;2022-10-24T12:15:18;19.60;99.90
9987;DHT22;5033;46.310;11.214;2022-10-24T12:18:03;19.50;99.90
9987;DHT22;5033;46.310;11.214;2022-10-24T12:20:32;19.40;99.90
9987;DHT22;5033;46.310;11.214;2022-10-24T12:23:00;19.30;99.90
9987;DHT22;5033;46.310;11.214;2022-10-24T12:25:30;19.20;99.90
9987;DHT22;5033;46.310;11.214;2022-10-24T12:28:00;19.20;99.90
9987;DHT22;5033;46.310;11.214;2022-10-24T12:30:30;19.30;99.90
9987;DHT22;5033;46.310;11.214;2022-10-24T12:33:07;19.40;99.90
9987;DHT22;5033;46.310;11.214;2022-10-24T12:35:47;19.50;99.90
9987;DHT22;5033;46.310;11.214;2022-10-24T12:41:41;19.50;99.90
9987;DHT22;5033;46.310;11.214;2022-10-24T12:44:36;19.40;99.90
9987;DHT22;5033;46.310;11.214;2022-10-24T12:47:28;19.20;99.90
9987;DHT22;5033;46.310;11.214;2022-10-24T12:49:56;19.00;99.90
9987;DHT22;5033;46.310;11.214;2022-10-24T12:56:10;18.60;99.90
9987;DHT22;5033;46.310;11.214;2022-10-24T12:58:39;18.50;99.90
9987;DHT22;5033;46.310;11.214;2022-10-24T13:01:10;18.40;99.90
9987;DHT22;5033;46.310;11.214;2022-10-24T13:04:16;18.50;99.90
9987;DHT22;5033;46.310;11.214;2022-10-24T13:07:02;18.20;99.90
9987;DHT22;5033;46.310;11.214;2022-10-24T13:09:41;18.00;99.90
9987;DHT22;5033;46.310;11.214;2022-10-24T13:12:24;18.00;99.90
9987;DHT22;5033;46.310;11.214;2022-10-24T13:15:19;17.90;99.90
9987;DHT22;5033;46.310;11.214;2022-10-24T13:17:52;17.80;99.90
9987;DHT22;5033;46.310;11.214;2022-10-24T13:20:26;17.70;99.90
9987;DHT22;5033;46.310;11.214;2022-10-24T13:22:59;17.70;99.90
9987;DHT22;5033;46.310;11.214;2022-10-24T13:25:30;17.60;99.90
9987;DHT22;5033;46.310;11.214;2022-10-24T13:31:38;17.60;99.90
9987;DHT22;5033;46.310;11.214;2022-10-24T13:34:24;17.50;99.90
9987;DHT22;5033;46.310;11.214;2022-10-24T13:36:59;17.50;99.90
9987;DHT22;5033;46.310;11.214;2022-10-24T13:39:29;17.40;99.90
9987;DHT22;5033;46.310;11.214;2022-10-24T13:42:00;17.40;99.90
9987;DHT22;5033;46.310;11.214;2022-10-24T13:44:34;17.40;99.90
9987;DHT22;5033;46.310;11.214;2022-10-24T13:47:14;17.30;99.90
9987;DHT22;5033;46.310;11.214;2022-10-24T13:49:48;17.20;99.90
9987;DHT22;5033;46.310;11.214;2022-10-24T13:52:20;17.10;99.90
9987;DHT22;5033;46.310;11.214;2022-10-24T13:54:51;16.90;99.90
9987;DHT22;5033;46.310;11.214;2022-10-24T13:57:27;16.80;99.90
9987;DHT22;5033;46.310;11.214;2022-10-24T13:59:56;16.80;99.90
9987;DHT22;5033;46.310;11.214;2022-10-24T14:02:29;16.80;99.90
9987;DHT22;5033;46.310;11.214;2022-10-24T14:04:58;16.70;99.90
9987;DHT22;5033;46.310;11.214;2022-10-24T14:07:28;16.70;99.90
9987;DHT22;5033;46.310;11.214;2022-10-24T14:09:58;16.60;99.90
9987;DHT22;5033;46.310;11.214;2022-10-24T14:12:29;16.60;99.90
9987;DHT22;5033;46.310;11.214;2022-10-24T14:14:58;16.50;99.90
9987;DHT22;5033;46.310;11.214;2022-10-24T14:17:30;16.50;99.90
9987;DHT22;5033;46.310;11.214;2022-10-24T14:20:00;16.50;99.90
9987;DHT22;5033;46.310;11.214;2022-10-24T14:22:33;16.60;99.90
9987;DHT22;5033;46.310;11.214;2022-10-24T14:25:01;16.60;99.90
9987;DHT22;5033;46.310;11.214;2022-10-24T14:27:28;16.50;99.90
9987;DHT22;5033;46.310;11.214;2022-10-24T14:29:58;16.50;99.90
9987;DHT22;5033;46.310;11.214;2022-10-24T14:32:26;16.40;99.90
9987;DHT22;5033;46.310;11.214;2022-10-24T14:34:57;16.30;99.90
9987;DHT22;5033;46.310;11.214;2022-10-24T14:37:31;16.10;99.90
9987;DHT22;5033;46.310;11.214;2022-10-24T14:39:59;16.10;99.90
9987;DHT22;5033;46.310;11.214;2022-10-24T14:42:27;16.10;99.90
9987;DHT22;5033;46.310;11.214;2022-10-24T14:44:55;16.00;99.90
9987;DHT22;5033;46.310;11.214;2022-10-24T14:47:25;15.90;99.90
9987;DHT22;5033;46.310;11.214;2022-10-24T14:49:54;15.90;99.90
9987;DHT22;5033;46.310;11.214;2022-10-24T14:52:25;15.80;99.90
9987;DHT22;5033;46.310;11.214;2022-10-24T14:54:58;15.70;99.90
9987;DHT22;5033;46.310;11.214;2022-10-24T14:57:28;15.80;99.90
9987;DHT22;5033;46.310;11.214;2022-10-24T14:59:58;15.70;99.90
9987;DHT22;5033;46.310;11.214;2022-10-24T15:02:33;15.60;99.90
9987;DHT22;5033;46.310;11.214;2022-10-24T15:05:15;15.50;99.90
9987;DHT22;5033;46.310;11.214;2022-10-24T15:07:42;15.40;99.90
9987;DHT22;5033;46.310;11.214;2022-10-24T15:10:23;15.50;99.90
9987;DHT22;5033;46.310;11.214;2022-10-24T15:12:59;15.50;99.90
9987;DHT22;5033;46.310;11.214;2022-10-24T15:15:29;15.60;99.90
9987;DHT22;5033;46.310;11.214;2022-10-24T15:17:59;15.60;99.90
9987;DHT22;5033;46.310;11.214;2022-10-24T15:20:35;15.60;99.90
9987;DHT22;5033;46.310;11.214;2022-10-24T15:23:03;15.60;99.90
9987;DHT22;5033;46.310;11.214;2022-10-24T15:25:33;15.50;99.90
9987;DHT22;5033;46.310;11.214;2022-10-24T15:28:02;15.60;99.90
9987;DHT22;5033;46.310;11.214;2022-10-24T15:30:32;15.60;99.90
9987;DHT22;5033;46.310;11.214;2022-10-24T15:33:00;15.50;99.90
9987;DHT22;5033;46.310;11.214;2022-10-24T15:35:27;15.40;99.90
9987;DHT22;5033;46.310;11.214;2022-10-24T15:37:58;15.20;99.90
9987;DHT22;5033;46.310;11.214;2022-10-24T15:40:27;15.00;99.90
9987;DHT22;5033;46.310;11.214;2022-10-24T15:42:55;14.90;99.90
9987;DHT22;5033;46.310;11.214;2022-10-24T15:45:23;14.80;99.90
9987;DHT22;5033;46.310;11.214;2022-10-24T15:47:51;14.80;99.90
9987;DHT22;5033;46.310;11.214;2022-10-24T15:50:20;14.80;99.90
9987;DHT22;5033;46.310;11.214;2022-10-24T15:52:50;14.90;99.90
9987;DHT22;5033;46.310;11.214;2022-10-24T15:55:22;15.00;99.90
9987;DHT22;5033;46.310;11.214;2022-10-24T15:57:49;15.00;99.90
9987;DHT22;5033;46.310;11.214;2022-10-24T16:00:18;15.10;99.90
9987;DHT22;5033;46.310;11.214;2022-10-24T16:02:46;15.20;99.90
9987;DHT22;5033;46.310;11.214;2022-10-24T16:05:16;15.20;99.90
9987;DHT22;5033;46.310;11.214;2022-10-24T16:07:44;15.30;99.90
9987;DHT22;5033;46.310;11.214;2022-10-24T16:10:13;15.30;99.90
9987;DHT22;5033;46.310;11.214;2022-10-24T16:12:42;15.40;99.90
9987;DHT22;5033;46.310;11.214;2022-10-24T16:15:18;15.40;99.90
9987;DHT22;5033;46.310;11.214;2022-10-24T16:17:45;15.50;99.90
9987;DHT22;5033;46.310;11.214;2022-10-24T16:20:13;15.50;99.90
9987;DHT22;5033;46.310;11.214;2022-10-24T16:22:41;15.50;99.90
9987;DHT22;5033;46.310;11.214;2022-10-24T16:25:14;15.50;99.90
9987;DHT22;5033;46.310;11.214;2022-10-24T16:27:43;15.50;99.90
9987;DHT22;5033;46.310;11.214;2022-10-24T16:30:11;15.50;99.90
9987;DHT22;5033;46.310;11.214;2022-10-24T16:32:38;15.50;99.90